createdAt,value
2022-10-20T00:02:09.823Z,94.50
2022-10-20T00:04:38.284Z,94.30
2022-10-20T00:07:06.531Z,94.40
2022-10-20T00:09:34.667Z,94.40
2022-10-20T00:12:04.480Z,94.50
2022-10-20T00:14:32.626Z,94.50
2022-10-20T00:17:01.485Z,94.00
2022-10-20T00:19:30.092Z,94.10
2022-10-20T00:21:58.358Z,94.20
2022-10-20T00:24:26.826Z,94.40
2022-10-20T00:26:54.889Z,94.70
2022-10-20T00:29:24.551Z,94.90
2022-10-20T00:31:52.681Z,95.00
2022-10-20T00:34:21.287Z,95.10
2022-10-20T00:36:51.321Z,95.10
2022-10-20T00:39:22.037Z,95.50
2022-10-20T00:41:50.116Z,95.90
2022-10-20T00:44:53.342Z,97.10
2022-10-20T00:47:33.787Z,96.30
2022-10-20T00:50:06.809Z,96.20
2022-10-20T00:52:36.019Z,96.60
2022-10-20T00:55:09.213Z,96.30
2022-10-20T00:57:38.397Z,96.40
2022-10-20T01:00:09.301Z,96.30
2022-10-20T01:02:37.643Z,96.30
2022-10-20T01:05:07.037Z,96.60
2022-10-20T01:07:35.526Z,96.80
2022-10-20T01:10:05.242Z,96.50
2022-10-20T01:12:41.439Z,96.30
2022-10-20T01:15:18.869Z,96.00
2022-10-20T01:17:54.451Z,96.00
2022-10-20T01:20:45.748Z,95.90
2022-10-20T01:23:42.426Z,95.70
2022-10-20T01:26:43.971Z,96.00
2022-10-20T01:29:17.958Z,96.00
2022-10-20T01:31:54.135Z,96.30
2022-10-20T01:34:29.165Z,96.10
2022-10-20T01:37:00.460Z,96.90
2022-10-20T01:39:35.104Z,97.30
2022-10-20T01:42:08.922Z,97.20
2022-10-20T01:44:40.038Z,97.20
2022-10-20T01:47:11.103Z,97.00
2022-10-20T01:49:44.368Z,96.80
2022-10-20T01:52:12.772Z,97.00
2022-10-20T01:54:41.204Z,96.50
2022-10-20T01:57:32.286Z,96.50
2022-10-20T02:00:08.340Z,96.40
2022-10-20T02:02:52.483Z,96.30
2022-10-20T02:05:39.365Z,96.20
2022-10-20T02:08:14.003Z,96.90
2022-10-20T02:10:47.153Z,97.40
2022-10-20T02:13:17.163Z,97.60
2022-10-20T02:15:49.769Z,97.80
2022-10-20T02:18:21.637Z,97.80
2022-10-20T02:20:52.796Z,98.40
2022-10-20T02:23:21.342Z,97.20
2022-10-20T02:25:51.568Z,97.40
2022-10-20T02:28:22.670Z,97.50
2022-10-20T02:30:52.711Z,97.50
2022-10-20T02:33:23.140Z,97.50
2022-10-20T02:35:56.326Z,97.70
2022-10-20T02:38:24.603Z,98.60
2022-10-20T02:40:52.779Z,98.60
2022-10-20T02:43:20.896Z,98.10
2022-10-20T02:45:48.995Z,97.70
2022-10-20T02:48:18.412Z,97.40
2022-10-20T02:50:46.514Z,97.00
2022-10-20T02:53:14.523Z,96.80
2022-10-20T02:55:43.578Z,96.50
2022-10-20T02:58:11.624Z,96.40
2022-10-20T03:00:39.766Z,96.50
2022-10-20T03:03:07.821Z,96.60
2022-10-20T03:05:44.360Z,96.70
2022-10-20T03:08:13.223Z,96.70
2022-10-20T03:10:41.703Z,96.60
2022-10-20T03:13:10.507Z,96.70
2022-10-20T03:15:38.745Z,96.60
2022-10-20T03:18:06.950Z,96.50
2022-10-20T03:20:35.411Z,97.10
2022-10-20T03:23:04.958Z,96.40
2022-10-20T03:25:33.352Z,96.20
2022-10-20T03:28:01.421Z,96.50
2022-10-20T03:30:29.547Z,96.80
2022-10-20T03:32:59.990Z,97.00
2022-10-20T03:35:30.331Z,97.00
2022-10-20T03:37:58.395Z,97.80
2022-10-20T03:40:27.820Z,98.30
2022-10-20T03:42:55.909Z,98.30
2022-10-20T03:45:24.165Z,98.20
2022-10-20T03:47:52.175Z,98.30
2022-10-20T03:50:20.380Z,98.40
2022-10-20T03:52:49.398Z,98.30
2022-10-20T03:55:17.936Z,98.20
2022-10-20T03:57:48.151Z,98.10
2022-10-20T04:00:16.250Z,97.90
2022-10-20T04:02:46.361Z,99.00
2022-10-20T04:05:16.113Z,98.80
2022-10-20T04:07:44.206Z,98.30
2022-10-20T04:10:13.199Z,98.90
2022-10-20T04:12:41.753Z,99.50
2022-10-20T04:15:18.495Z,99.20
2022-10-20T04:17:46.640Z,98.70
2022-10-20T04:20:15.252Z,99.10
2022-10-20T04:22:43.509Z,99.30
2022-10-20T04:25:12.074Z,99.90
2022-10-20T04:27:40.313Z,99.90
2022-10-20T04:30:10.157Z,99.90
2022-10-20T04:32:39.565Z,99.90
2022-10-20T04:35:08.715Z,99.90
2022-10-20T04:37:37.120Z,99.90
2022-10-20T04:40:05.964Z,99.90
2022-10-20T04:42:34.048Z,99.90
2022-10-20T04:45:02.377Z,99.90
2022-10-20T04:47:33.397Z,99.90
2022-10-20T04:50:03.043Z,99.90
2022-10-20T04:52:31.179Z,99.90
2022-10-20T04:54:59.443Z,99.90
2022-10-20T04:57:29.125Z,99.90
2022-10-20T04:59:57.223Z,99.90
2022-10-20T05:02:25.700Z,99.90
2022-10-20T05:04:53.765Z,99.90
2022-10-20T05:07:23.331Z,99.90
2022-10-20T05:09:51.464Z,99.90
2022-10-20T05:12:19.514Z,99.90
2022-10-20T05:14:47.578Z,99.90
2022-10-20T05:17:15.657Z,99.50
2022-10-20T05:19:46.759Z,98.60
2022-10-20T05:22:14.970Z,98.00
2022-10-20T05:24:44.452Z,97.90
2022-10-20T05:27:12.640Z,98.30
2022-10-20T05:29:41.753Z,98.50
2022-10-20T05:32:11.697Z,98.90
2022-10-20T05:34:40.131Z,99.30
2022-10-20T05:37:08.222Z,99.40
2022-10-20T05:39:36.488Z,99.90
2022-10-20T05:42:05.852Z,99.60
2022-10-20T05:44:34.000Z,99.90
2022-10-20T05:47:02.206Z,99.90
2022-10-20T05:49:30.549Z,99.90
2022-10-20T05:51:58.709Z,99.90
2022-10-20T05:54:27.106Z,99.90
2022-10-20T05:56:55.340Z,99.90
2022-10-20T05:59:30.209Z,99.90
2022-10-20T06:01:58.439Z,99.90
2022-10-20T06:04:28.158Z,99.90
2022-10-20T06:06:57.442Z,99.90
2022-10-20T06:09:25.723Z,99.70
2022-10-20T06:11:54.812Z,99.40
2022-10-20T06:14:23.317Z,98.70
2022-10-20T06:16:53.568Z,98.60
2022-10-20T06:19:21.704Z,98.00
2022-10-20T06:21:49.871Z,97.30
2022-10-20T06:24:18.572Z,96.70
2022-10-20T06:26:47.318Z,96.40
2022-10-20T06:29:17.623Z,96.00
2022-10-20T06:31:47.259Z,95.20
2022-10-20T06:34:20.551Z,94.80
2022-10-20T06:36:49.312Z,94.30
2022-10-20T06:39:19.465Z,94.00
2022-10-20T06:41:50.233Z,93.70
2022-10-20T06:44:22.427Z,93.00
2022-10-20T06:46:52.287Z,91.90
2022-10-20T06:49:22.091Z,91.60
2022-10-20T06:51:50.713Z,91.60
2022-10-20T06:54:19.080Z,91.50
2022-10-20T06:56:49.521Z,91.70
2022-10-20T06:59:17.723Z,91.20
2022-10-20T07:01:45.953Z,90.80
2022-10-20T07:04:16.357Z,90.20
2022-10-20T07:06:47.263Z,90.10
2022-10-20T07:09:17.881Z,89.10
2022-10-20T07:11:46.476Z,88.10
2022-10-20T07:14:15.192Z,87.70
2022-10-20T07:16:43.895Z,87.10
2022-10-20T07:19:12.035Z,87.00
2022-10-20T07:21:42.938Z,86.50
2022-10-20T07:24:18.034Z,86.60
2022-10-20T07:26:46.433Z,86.20
2022-10-20T07:29:15.057Z,86.00
2022-10-20T07:31:45.182Z,85.60
2022-10-20T07:34:24.963Z,84.80
2022-10-20T07:36:56.598Z,84.60
2022-10-20T07:39:27.130Z,83.70
2022-10-20T07:41:55.285Z,83.10
2022-10-20T07:44:24.307Z,82.50
2022-10-20T07:46:52.495Z,82.20
2022-10-20T07:52:08.822Z,80.80
2022-10-20T07:54:38.305Z,79.80
2022-10-20T07:57:06.466Z,78.60
2022-10-20T07:59:37.383Z,78.50
2022-10-20T08:02:05.927Z,77.70
2022-10-20T08:04:35.118Z,77.50
2022-10-20T08:07:03.467Z,77.20
2022-10-20T08:09:33.687Z,76.00
2022-10-20T08:12:03.686Z,75.40
2022-10-20T08:14:38.105Z,75.30
2022-10-20T08:17:06.617Z,75.10
2022-10-20T08:19:40.604Z,74.00
2022-10-20T08:22:08.932Z,73.60
2022-10-20T08:24:37.247Z,73.00
2022-10-20T08:27:06.905Z,72.60
2022-10-20T08:29:35.147Z,71.80
2022-10-20T08:32:03.495Z,70.90
2022-10-20T08:34:32.325Z,71.00
2022-10-20T08:37:01.307Z,71.00
2022-10-20T08:39:32.002Z,70.60
2022-10-20T08:42:08.669Z,69.70
2022-10-20T08:44:41.017Z,69.70
2022-10-20T08:47:24.150Z,69.50
2022-10-20T08:49:54.057Z,69.20
2022-10-20T08:52:25.275Z,69.30
2022-10-20T08:54:56.517Z,69.40
2022-10-20T08:57:29.197Z,69.30
2022-10-20T09:00:13.269Z,68.60
2022-10-20T09:02:41.853Z,68.40
2022-10-20T09:05:13.976Z,67.40
2022-10-20T09:07:50.059Z,67.40
2022-10-20T09:10:36.464Z,66.80
2022-10-20T09:13:12.408Z,66.40
2022-10-20T09:15:42.227Z,66.10
2022-10-20T09:18:13.387Z,66.30
2022-10-20T09:20:47.503Z,65.60
2022-10-20T09:23:39.904Z,66.00
2022-10-20T09:26:24.890Z,65.80
2022-10-20T09:29:15.255Z,65.40
2022-10-20T09:31:47.030Z,64.50
2022-10-20T09:34:24.532Z,65.00
2022-10-20T09:36:56.835Z,64.40
2022-10-20T09:39:28.464Z,64.70
2022-10-20T09:44:38.936Z,65.00
2022-10-20T09:47:15.484Z,64.40
2022-10-20T09:49:46.079Z,64.00
2022-10-20T09:52:23.555Z,64.40
2022-10-20T09:54:52.778Z,63.90
2022-10-20T09:57:22.283Z,63.00
2022-10-20T09:59:54.121Z,62.30
2022-10-20T10:02:32.312Z,62.10
2022-10-20T10:05:20.915Z,61.70
2022-10-20T10:07:59.061Z,61.00
2022-10-20T10:10:29.666Z,60.80
2022-10-20T10:13:01.745Z,60.50
2022-10-20T10:15:33.228Z,60.30
2022-10-20T10:18:13.687Z,60.30
2022-10-20T10:20:42.361Z,60.10
2022-10-20T10:23:25.830Z,61.60
2022-10-20T10:25:59.342Z,61.10
2022-10-20T10:28:37.751Z,61.10
2022-10-20T10:31:21.880Z,60.20
2022-10-20T10:33:56.003Z,60.00
2022-10-20T10:36:34.826Z,60.50
2022-10-20T10:39:04.176Z,60.30
2022-10-20T10:44:41.955Z,60.40
2022-10-20T10:47:28.577Z,60.90
2022-10-20T10:50:16.262Z,60.20
2022-10-20T10:52:50.627Z,60.70
2022-10-20T10:55:47.117Z,60.60
2022-10-20T10:58:22.800Z,60.10
2022-10-20T11:00:56.882Z,59.80
2022-10-20T11:03:49.257Z,59.20
2022-10-20T11:06:26.402Z,58.70
2022-10-20T11:09:13.626Z,58.70
2022-10-20T11:11:50.852Z,57.50
2022-10-20T11:14:33.845Z,57.80
2022-10-20T11:17:20.352Z,58.10
2022-10-20T11:20:12.163Z,58.50
2022-10-20T11:22:52.140Z,58.20
2022-10-20T11:25:29.862Z,58.20
2022-10-20T11:27:58.489Z,57.90
2022-10-20T11:30:27.461Z,57.60
2022-10-20T11:33:02.244Z,57.80
2022-10-20T11:35:36.734Z,56.80
2022-10-20T11:38:16.290Z,56.80
2022-10-20T11:40:50.063Z,56.90
2022-10-20T11:43:24.652Z,56.70
2022-10-20T11:45:56.325Z,56.90
2022-10-20T11:48:30.030Z,56.70
2022-10-20T11:51:19.903Z,56.70
2022-10-20T11:54:14.366Z,56.80
2022-10-20T11:56:59.772Z,56.80
2022-10-20T12:00:03.646Z,56.10
2022-10-20T12:03:08.289Z,55.60
2022-10-20T12:06:09.284Z,54.80
2022-10-20T12:09:03.787Z,55.40
2022-10-20T12:11:40.867Z,54.10
2022-10-20T12:14:20.160Z,54.00
2022-10-20T12:17:15.129Z,53.40
2022-10-20T12:19:45.451Z,53.60
2022-10-20T12:22:39.916Z,53.80
2022-10-20T12:25:35.903Z,54.10
2022-10-20T12:28:42.456Z,54.40
2022-10-20T12:31:10.865Z,54.70
2022-10-20T12:33:59.156Z,55.50
2022-10-20T12:36:34.962Z,55.20
2022-10-20T12:39:17.892Z,55.30
2022-10-20T12:42:00.700Z,55.80
2022-10-20T12:44:32.379Z,55.70
2022-10-20T12:47:06.426Z,55.90
2022-10-20T12:49:36.617Z,55.60
2022-10-20T12:52:07.957Z,55.80
2022-10-20T12:54:39.507Z,56.10
2022-10-20T12:57:28.967Z,55.70
2022-10-20T12:59:57.591Z,56.10
2022-10-20T13:02:45.753Z,56.30
2022-10-20T13:05:47.720Z,56.30
2022-10-20T13:08:31.763Z,56.60
2022-10-20T13:11:42.479Z,55.80
2022-10-20T13:14:51.357Z,56.40
2022-10-20T13:17:28.348Z,56.30
2022-10-20T13:20:01.950Z,56.00
2022-10-20T13:22:43.093Z,55.80
2022-10-20T13:25:34.971Z,55.00
2022-10-20T13:28:08.415Z,55.00
2022-10-20T13:30:38.109Z,55.20
2022-10-20T13:36:13.195Z,54.90
2022-10-20T13:38:48.309Z,55.20
2022-10-20T13:41:24.235Z,55.40
2022-10-20T13:44:01.873Z,55.40
2022-10-20T13:46:48.164Z,55.70
2022-10-20T13:49:31.409Z,56.70
2022-10-20T13:52:04.177Z,55.70
2022-10-20T13:54:38.097Z,56.40
2022-10-20T13:57:11.533Z,56.50
2022-10-20T13:59:41.826Z,56.10
2022-10-20T14:02:26.841Z,56.00
2022-10-20T14:05:05.088Z,56.50
2022-10-20T14:07:41.232Z,56.40
2022-10-20T14:10:23.608Z,56.80
2022-10-20T14:12:52.871Z,56.50
2022-10-20T14:15:27.950Z,56.70
2022-10-20T14:17:59.598Z,57.00
2022-10-20T14:20:29.212Z,57.60
2022-10-20T14:23:00.535Z,57.80
2022-10-20T14:25:30.586Z,57.90
2022-10-20T14:28:00.351Z,58.10
2022-10-20T14:30:32.297Z,58.00
2022-10-20T14:33:02.755Z,57.70
2022-10-20T14:35:33.630Z,58.10
2022-10-20T14:38:05.634Z,58.10
2022-10-20T14:40:36.153Z,58.20
2022-10-20T14:43:07.493Z,58.40
2022-10-20T14:45:35.715Z,58.10
2022-10-20T14:48:09.751Z,58.30
2022-10-20T14:50:41.041Z,58.50
2022-10-20T14:53:31.857Z,58.70
2022-10-20T14:56:02.429Z,58.90
2022-10-20T14:58:39.069Z,59.20
2022-10-20T15:01:27.593Z,59.60
2022-10-20T15:04:15.071Z,59.80
2022-10-20T15:06:43.422Z,60.20
2022-10-20T15:09:26.071Z,60.70
2022-10-20T15:11:54.413Z,60.80
2022-10-20T15:14:22.840Z,61.20
2022-10-20T15:16:51.198Z,61.30
2022-10-20T15:19:35.891Z,61.50
2022-10-20T15:22:11.526Z,62.00
2022-10-20T15:24:40.047Z,62.20
2022-10-20T15:27:15.132Z,62.10
2022-10-20T15:29:49.762Z,62.30
2022-10-20T15:32:18.446Z,62.70
2022-10-20T15:34:47.953Z,62.90
2022-10-20T15:37:16.088Z,63.00
2022-10-20T15:39:44.925Z,63.20
2022-10-20T15:42:13.207Z,63.60
2022-10-20T15:44:41.530Z,63.70
2022-10-20T15:47:10.082Z,64.90
2022-10-20T15:49:38.244Z,66.10
2022-10-20T15:52:09.362Z,67.50
2022-10-20T15:54:37.575Z,68.20
2022-10-20T15:57:05.761Z,68.70
2022-10-20T15:59:33.939Z,68.90
2022-10-20T16:02:02.148Z,69.00
2022-10-20T16:04:31.390Z,68.80
2022-10-20T16:07:03.071Z,68.50
2022-10-20T16:09:32.761Z,68.90
2022-10-20T16:12:00.827Z,68.50
2022-10-20T16:14:31.253Z,68.90
2022-10-20T16:16:59.373Z,69.30
2022-10-20T16:19:27.608Z,69.40
2022-10-20T16:21:55.672Z,69.20
2022-10-20T16:24:26.144Z,68.90
2022-10-20T16:26:56.087Z,68.80
2022-10-20T16:29:24.284Z,69.20
2022-10-20T16:31:52.710Z,69.00
2022-10-20T16:34:20.855Z,68.80
2022-10-20T16:36:51.573Z,68.60
2022-10-20T16:39:19.963Z,68.90
2022-10-20T16:41:48.130Z,68.70
2022-10-20T16:44:17.985Z,69.00
2022-10-20T16:46:46.356Z,68.60
2022-10-20T16:49:14.425Z,69.00
2022-10-20T16:51:42.639Z,69.10
2022-10-20T16:54:10.953Z,68.90
2022-10-20T16:56:38.984Z,69.10
2022-10-20T16:59:07.226Z,69.40
2022-10-20T17:01:36.819Z,69.60
2022-10-20T17:04:05.144Z,69.80
2022-10-20T17:06:33.383Z,69.90
2022-10-20T17:09:01.921Z,70.20
2022-10-20T17:11:32.044Z,70.20
2022-10-20T17:14:01.471Z,70.10
2022-10-20T17:16:31.595Z,70.20
2022-10-20T17:19:03.981Z,70.20
2022-10-20T17:21:32.910Z,70.30
2022-10-20T17:24:01.956Z,70.60
2022-10-20T17:26:31.945Z,70.70
2022-10-20T17:29:02.046Z,71.00
2022-10-20T17:31:31.081Z,70.90
2022-10-20T17:33:59.991Z,71.10
2022-10-20T17:36:30.394Z,71.20
2022-10-20T17:39:02.253Z,71.30
2022-10-20T17:41:31.165Z,71.20
2022-10-20T17:44:00.779Z,71.30
2022-10-20T17:46:33.401Z,71.40
2022-10-20T17:49:04.415Z,71.20
2022-10-20T17:51:35.006Z,71.00
2022-10-20T17:54:03.818Z,70.90
2022-10-20T17:56:35.291Z,71.00
2022-10-20T17:59:06.525Z,71.00
2022-10-20T18:01:38.710Z,70.80
2022-10-20T18:04:10.337Z,71.00
2022-10-20T18:06:40.788Z,71.20
2022-10-20T18:09:11.833Z,71.30
2022-10-20T18:11:42.159Z,71.50
2022-10-20T18:14:10.371Z,71.70
2022-10-20T18:16:40.080Z,71.50
2022-10-20T18:19:09.922Z,71.60
2022-10-20T18:21:39.444Z,71.20
2022-10-20T18:24:09.396Z,71.30
2022-10-20T18:26:38.433Z,71.50
2022-10-20T18:29:07.956Z,72.50
2022-10-20T18:31:37.251Z,71.50
2022-10-20T18:34:07.420Z,71.50
2022-10-20T18:36:40.361Z,71.30
2022-10-20T18:39:13.021Z,71.40
2022-10-20T18:41:43.110Z,71.60
2022-10-20T18:44:14.612Z,72.00
2022-10-20T18:46:46.291Z,72.20
2022-10-20T18:49:18.845Z,72.70
2022-10-20T18:51:48.372Z,73.10
2022-10-20T18:54:19.394Z,73.20
2022-10-20T18:56:47.654Z,73.50
2022-10-20T18:59:17.112Z,73.50
2022-10-20T19:01:45.258Z,73.60
2022-10-20T19:04:15.915Z,73.10
2022-10-20T19:06:45.485Z,73.00
2022-10-20T19:09:15.678Z,72.60
2022-10-20T19:11:46.475Z,72.20
2022-10-20T19:14:15.651Z,71.80
2022-10-20T19:16:46.205Z,72.00
2022-10-20T19:19:16.404Z,71.70
2022-10-20T19:21:45.042Z,71.20
2022-10-20T19:24:15.969Z,70.90
2022-10-20T19:26:56.918Z,70.90
2022-10-20T19:29:31.242Z,71.10
2022-10-20T19:32:01.479Z,71.20
2022-10-20T19:34:32.749Z,71.30
2022-10-20T19:37:01.727Z,71.20
2022-10-20T19:39:33.522Z,71.20
2022-10-20T19:42:06.567Z,70.90
2022-10-20T19:44:34.792Z,71.90
2022-10-20T19:47:06.216Z,71.10
2022-10-20T19:49:34.690Z,71.10
2022-10-20T19:52:03.175Z,71.10
2022-10-20T19:54:31.301Z,71.30
2022-10-20T19:56:59.400Z,71.10
2022-10-20T19:59:28.853Z,70.40
2022-10-20T20:01:57.001Z,70.80
2022-10-20T20:04:25.115Z,71.00
2022-10-20T20:06:53.764Z,70.70
2022-10-20T20:09:29.396Z,70.80
2022-10-20T20:11:57.685Z,70.80
2022-10-20T20:14:26.718Z,70.90
2022-10-20T20:16:56.146Z,70.70
2022-10-20T20:19:24.198Z,70.60
2022-10-20T20:21:52.270Z,70.10
2022-10-20T20:24:20.405Z,70.40
2022-10-20T20:26:48.479Z,70.60
2022-10-20T20:29:16.640Z,70.60
2022-10-20T20:31:44.906Z,70.50
2022-10-20T20:34:14.335Z,70.90
2022-10-20T20:36:44.652Z,70.90
2022-10-20T20:39:12.801Z,71.20
2022-10-20T20:41:40.866Z,71.30
2022-10-20T20:44:09.417Z,71.70
2022-10-20T20:46:37.913Z,71.90
2022-10-20T20:49:06.474Z,71.80
2022-10-20T20:51:36.147Z,71.50
2022-10-20T20:54:04.746Z,71.60
2022-10-20T20:56:35.158Z,71.60
2022-10-20T20:59:03.474Z,71.60
2022-10-20T21:01:32.595Z,71.70
2022-10-20T21:04:02.981Z,71.60
2022-10-20T21:07:00.328Z,72.50
2022-10-20T21:09:21.206Z,71.90
2022-10-20T21:11:49.914Z,72.10
2022-10-20T21:14:18.133Z,72.30
2022-10-20T21:16:46.723Z,72.50
2022-10-20T21:19:15.148Z,72.40
2022-10-20T21:21:47.118Z,72.50
2022-10-20T21:24:15.646Z,72.60
2022-10-20T21:26:45.172Z,72.70
2022-10-20T21:29:13.332Z,73.00
2022-10-20T21:31:41.587Z,73.40
2022-10-20T21:34:09.906Z,74.10
2022-10-20T21:36:40.154Z,74.20
2022-10-20T21:39:12.645Z,74.10
2022-10-20T21:41:41.793Z,74.30
2022-10-20T21:44:13.463Z,74.90
2022-10-20T21:46:44.981Z,75.10
2022-10-20T21:49:17.158Z,74.90
2022-10-20T21:51:46.921Z,75.30
2022-10-20T21:56:50.093Z,75.30
2022-10-20T21:59:22.378Z,75.00
2022-10-20T22:01:51.475Z,74.70
2022-10-20T22:04:20.937Z,74.80
2022-10-20T22:06:49.379Z,74.80
2022-10-20T22:09:20.935Z,74.40
2022-10-20T22:11:52.025Z,74.40
2022-10-20T22:14:21.457Z,74.50
2022-10-20T22:16:49.745Z,74.80
2022-10-20T22:19:20.243Z,74.60
2022-10-20T22:21:50.847Z,74.80
2022-10-20T22:24:20.478Z,74.70
2022-10-20T22:26:49.496Z,74.80
2022-10-20T22:29:17.602Z,75.20
2022-10-20T22:31:49.199Z,75.50
2022-10-20T22:34:17.378Z,75.80
2022-10-20T22:36:45.431Z,76.20
2022-10-20T22:39:14.497Z,76.40
2022-10-20T22:41:42.907Z,77.20
2022-10-20T22:44:11.567Z,77.50
2022-10-20T22:46:39.675Z,77.70
2022-10-20T22:49:09.543Z,78.10
2022-10-20T22:51:37.653Z,78.00
2022-10-20T22:54:08.012Z,77.70
2022-10-20T22:56:36.219Z,77.60
2022-10-20T22:59:04.366Z,77.60
2022-10-20T23:01:32.497Z,77.80
2022-10-20T23:04:00.597Z,78.70
2022-10-20T23:06:30.392Z,78.20
2022-10-20T23:08:58.497Z,78.00
2022-10-20T23:11:26.714Z,77.90
2022-10-20T23:13:54.836Z,77.90
2022-10-20T23:18:57.936Z,77.90
2022-10-20T23:21:26.458Z,77.70
2022-10-20T23:23:56.346Z,78.20
2022-10-20T23:26:24.770Z,78.40
2022-10-20T23:28:52.901Z,78.70
2022-10-20T23:31:22.858Z,78.60
2022-10-20T23:33:54.815Z,78.50
2022-10-20T23:36:23.208Z,78.80
2022-10-20T23:38:53.570Z,78.60
2022-10-20T23:41:23.087Z,78.90
2022-10-20T23:43:51.367Z,78.70
2022-10-20T23:46:21.694Z,78.90
2022-10-20T23:48:49.782Z,78.70
2022-10-20T23:51:19.861Z,78.80
2022-10-20T23:53:48.300Z,79.10
2022-10-20T23:56:19.147Z,78.60
2022-10-20T23:58:48.919Z,79.00
